Accueil
METAR-TAF:

METAR-TAF

Aéroports :

Aéroport d'East Midlands

Midlands de l'Est, Angleterre

latitude: 52-50N, longitude: 001-20W, altitude: 94 m

Observation

Le bulletin a été fait il y a 13 minutes, à 22:50 UTC
Vent 15 kt de ouest/sud-ouest
Température 16°C
Humidité 77%
Pression 1018 hPa
Visibilité 10 km ou plus
Nuages fragmentés à une hauteur de 2300 ft

METAR: EGNX 172250Z 24015KT 9999 BKN023 16/12 Q1018

Heure: 00:03 (23:03 UTC)

Prévision

Le bulletin a été fait il y a 6 heures et 9 minutes, à 16:54 UTC
Prévision valable du 17 à 18 UTC au 18 à 18 UTC
Vent 12 kt de ouest/sud-ouest
Visibilité 10 km ou plus
Nuages épars à une hauteur de 4500 ft
Probabilité 30% :
Temporairement
du 17 à 20 UTC au 18 à 08 UTC
Vent 15 kt de ouest/sud-ouest avec des rafales jusqu'à 25 kt
Nuages fragmentés à une hauteur de 1400 ft

TAF: EGNX 171654Z 1718/1818 25012KT 9999 SCT045 PROB30 TEMPO 1720/1808 25015G25KT BKN014

Observations et prévisions météorologiques de plus de 4000 aéroports (messages METAR et TAF).

Les stations disponibles sont représentées par des disques jaunes et rouges sur la carte.

Passer la souris dessus pour voir le nom de la station.

Cliquer dessus pour voir les observations et prévisions météorologiques.

Pour changer de carte: cliquez sur les boutons verts avec une croix noire pour zoomer, sur le bouton vert avec un tiret pour effectuer un zoom arrière, ou sur les flèches vertes pour les cartes adjacentes.


METAR-TAF: